Princeton, California
Current Conditions -  °F | °C
As of 7:53 AM on Saturday 25 Oct 2014 (Local Time) from KOVE Reporting Station
Light Rain Light Rain  
Wind Chill: 59°   Ceiling: 4300
Heat Index: 59°   Visibility: 8mi
Dew Point: 55°   Wind: 20mph
Humidity: 87%   Direction: 170°S
Pressure: 29.95"   Gusts: 28mph
Location:  39.4°N, 122.01°W
Report Text: KOVE 251453Z AUTO 17017G24KT 8SM -RA OVC043 15/13 A2995 RMK AO2 SLP143 P0008 60010 T01500128 51025
Loading
Personal Weather Stations






























Interactive Weather Map
Tropical Storm Tracking
New forecast layout! Learn more

10-Day Weather Forecast

Advertisements
Track Severe Weather on mobile